Time;durP1;ratioP1;P1;durP2;ratioP2;P2;SDS_P1;SDS_P2;PMS_P1;PMS_P2;Temp;Humidity;BMP_temperature;BMP_pressure;BME280_temperature;BME280_humidity;BME280_pressure;Samples;Min_cycle;Max_cycle;Signal;HPM_P1;HPM_P2
2022/10/21 05:18:03;;;;;;;26.98;15.05;;;;;;;;;;5174925;23;20079;-65
2022/10/21 05:20:29;;;;;;;28.60;15.40;;;;;;;;;;4933607;29;20047;-64
2022/10/21 05:22:56;;;;;;;30.38;15.93;;;;;;;;;;4933495;29;20103;-66
2022/10/21 05:25:22;;;;;;;28.88;15.15;;;;;;;;;;4933645;29;20027;-64
2022/10/21 05:27:48;;;;;;;32.47;16.83;;;;;;;;;;4936006;29;20034;-65
2022/10/21 05:30:15;;;;;;;27.42;16.13;;;;;;;;;;4938539;29;20031;-65
2022/10/21 05:32:41;;;;;;;30.67;15.85;;;;;;;;;;4910319;29;20034;-66
2022/10/21 05:35:08;;;;;;;34.05;16.65;;;;;;;;;;4933999;29;20023;-66
2022/10/21 05:37:34;;;;;;;34.85;17.00;;;;;;;;;;4933904;29;20047;-67
2022/10/21 05:40:00;;;;;;;30.42;16.23;;;;;;;;;;4934056;29;20062;-68
2022/10/21 05:42:26;;;;;;;29.17;17.20;;;;;;;;;;4934252;29;20046;-68
2022/10/21 05:44:52;;;;;;;30.20;15.80;;;;;;;;;;4934021;29;20152;-69
2022/10/21 05:47:20;;;;;;;32.05;16.80;;;;;;;;;;4933997;29;20470;-66
2022/10/21 05:49:46;;;;;;;31.13;16.85;;;;;;;;;;4933603;29;20032;-72
2022/10/21 05:52:12;;;;;;;30.15;16.08;;;;;;;;;;4932780;29;20043;-62
2022/10/21 05:54:38;;;;;;;28.80;15.43;;;;;;;;;;4933825;29;20040;-69
2022/10/21 05:57:04;;;;;;;29.80;16.13;;;;;;;;;;4933898;29;20035;-67
2022/10/21 05:59:30;;;;;;;29.00;15.27;;;;;;;;;;4933772;29;20371;-68
2022/10/21 06:01:56;;;;;;;27.10;15.65;;;;;;;;;;4931044;29;20046;-70
2022/10/21 06:04:22;;;;;;;25.92;15.93;;;;;;;;;;4922229;29;20036;-71
2022/10/21 06:06:48;;;;;;;27.40;17.05;;;;;;;;;;4933276;29;20091;-60
2022/10/21 06:09:14;;;;;;;31.08;17.23;;;;;;;;;;4933312;29;20032;-71
2022/10/21 06:11:40;;;;;;;28.98;17.42;;;;;;;;;;4933357;29;20031;-71
2022/10/21 06:14:06;;;;;;;26.42;16.38;;;;;;;;;;4933360;29;20492;-68
2022/10/21 06:16:35;;;;;;;33.08;18.27;;;;;;;;;;4926842;29;20492;-63
2022/10/21 06:19:01;;;;;;;32.67;18.02;;;;;;;;;;4925476;29;20075;-62
2022/10/21 06:21:27;;;;;;;30.42;17.75;;;;;;;;;;4927748;29;20063;-68
2022/10/21 06:23:54;;;;;;;29.38;18.15;;;;;;;;;;4926420;29;20487;-68
2022/10/21 06:26:20;;;;;;;32.92;18.60;;;;;;;;;;4926997;29;20145;-69
2022/10/21 06:28:46;;;;;;;34.03;19.65;;;;;;;;;;4926989;29;20024;-72
2022/10/21 06:31:13;;;;;;;32.05;19.13;;;;;;;;;;4925817;29;20400;-69
2022/10/21 06:33:39;;;;;;;36.03;18.52;;;;;;;;;;4927301;29;20024;-65
2022/10/21 06:36:05;;;;;;;30.92;17.38;;;;;;;;;;4926488;29;20039;-68
2022/10/21 06:38:32;;;;;;;28.77;17.40;;;;;;;;;;4925345;29;20032;-69
2022/10/21 06:41:02;;;;;;;35.72;21.55;;;;;;;;;;4927157;29;20031;-70
2022/10/21 06:43:28;;;;;;;36.03;22.42;;;;;;;;;;4927107;29;20437;-65
2022/10/21 06:45:58;;;;;;;47.40;26.75;;;;;;;;;;4925101;29;20079;-68
2022/10/21 06:48:24;;;;;;;40.95;24.80;;;;;;;;;;4925993;29;20083;-70
2022/10/21 06:50:55;;;;;;;42.92;24.20;;;;;;;;;;4926977;29;20032;-71
2022/10/21 06:53:21;;;;;;;41.30;21.95;;;;;;;;;;4923799;29;20036;-73
2022/10/21 06:55:47;;;;;;;34.53;19.30;;;;;;;;;;4926008;29;20028;-68
2022/10/21 06:58:13;;;;;;;26.88;17.10;;;;;;;;;;4927271;29;20440;-68
2022/10/21 07:00:39;;;;;;;31.73;16.83;;;;;;;;;;4925150;29;20042;-70
2022/10/21 07:03:05;;;;;;;26.80;17.02;;;;;;;;;;4927255;29;20106;-68
2022/10/21 07:05:31;;;;;;;31.67;16.15;;;;;;;;;;4920954;29;20067;-68
2022/10/21 07:07:57;;;;;;;25.77;15.90;;;;;;;;;;4917751;29;20083;-64
2022/10/21 07:10:23;;;;;;;25.05;14.95;;;;;;;;;;4917429;29;20796;-64
2022/10/21 07:12:49;;;;;;;27.75;15.45;;;;;;;;;;4917286;29;20059;-63
2022/10/21 07:15:15;;;;;;;27.10;16.80;;;;;;;;;;4917310;29;20118;-63
2022/10/21 07:17:41;;;;;;;29.90;16.02;;;;;;;;;;4917171;29;20399;-63
2022/10/21 07:20:07;;;;;;;23.55;14.70;;;;;;;;;;4920220;29;20095;-62
2022/10/21 07:22:34;;;;;;;25.17;15.25;;;;;;;;;;4920639;29;20079;-69
2022/10/21 07:25:00;;;;;;;23.95;14.40;;;;;;;;;;4922010;29;20016;-69
2022/10/21 07:27:26;;;;;;;23.73;14.63;;;;;;;;;;4916709;29;20036;-66
2022/10/21 07:29:52;;;;;;;27.45;14.55;;;;;;;;;;4918632;29;20549;-66
2022/10/21 07:32:18;;;;;;;25.05;14.80;;;;;;;;;;4914512;29;20035;-69
2022/10/21 07:34:44;;;;;;;22.85;14.10;;;;;;;;;;4905214;29;20028;-68
2022/10/21 07:37:10;;;;;;;24.75;14.27;;;;;;;;;;4916394;29;20039;-63
2022/10/21 07:39:36;;;;;;;24.05;14.25;;;;;;;;;;4918044;29;20055;-62
2022/10/21 07:42:02;;;;;;;25.55;13.68;;;;;;;;;;4924333;29;20054;-63
2022/10/21 07:44:28;;;;;;;19.60;12.75;;;;;;;;;;4924127;29;20049;-63
2022/10/21 07:46:55;;;;;;;21.55;12.40;;;;;;;;;;4931610;29;20032;-62
2022/10/21 07:49:21;;;;;;;20.10;12.32;;;;;;;;;;4932492;29;20356;-62
2022/10/21 07:51:49;;;;;;;19.10;11.45;;;;;;;;;;4933077;29;20551;-66
2022/10/21 07:54:17;;;;;;;20.08;10.77;;;;;;;;;;4931075;29;20035;-66
2022/10/21 07:56:45;;;;;;;17.30;10.77;;;;;;;;;;4935783;29;20562;-63
2022/10/21 07:59:11;;;;;;;17.65;10.45;;;;;;;;;;4936470;29;20070;-66
2022/10/21 08:01:39;;;;;;;17.63;10.70;;;;;;;;;;4936323;29;20090;-65
2022/10/21 08:04:05;;;;;;;17.70;10.30;;;;;;;;;;4935417;29;20034;-66
2022/10/21 08:06:32;;;;;;;17.92;9.68;;;;;;;;;;4916905;29;20039;-64
2022/10/21 08:08:58;;;;;;;17.13;9.90;;;;;;;;;;4928985;29;20032;-63
2022/10/21 08:11:25;;;;;;;14.27;9.23;;;;;;;;;;4922507;29;20535;-68
2022/10/21 08:13:52;;;;;;;19.35;9.80;;;;;;;;;;4930498;29;20483;-66
2022/10/21 08:16:18;;;;;;;16.30;9.60;;;;;;;;;;4935475;29;20036;-66
2022/10/21 08:18:44;;;;;;;16.67;10.23;;;;;;;;;;4930169;29;20077;-66
2022/10/21 08:21:10;;;;;;;18.20;9.32;;;;;;;;;;4923348;29;20556;-67
2022/10/21 08:23:37;;;;;;;16.45;9.98;;;;;;;;;;4923984;29;20036;-63
2022/10/21 08:26:03;;;;;;;17.23;9.20;;;;;;;;;;4923548;29;20522;-67
2022/10/21 08:28:30;;;;;;;22.25;9.60;;;;;;;;;;4933394;29;20039;-62
2022/10/21 08:31:05;;;;;;;15.15;9.13;;;;;;;;;;4925335;29;20027;-64
2022/10/21 08:33:31;;;;;;;16.00;8.73;;;;;;;;;;4916032;29;20039;-64
2022/10/21 08:35:58;;;;;;;18.40;9.00;;;;;;;;;;4916388;29;20107;-66
2022/10/21 08:38:24;;;;;;;16.42;8.88;;;;;;;;;;4915747;29;20362;-62
2022/10/21 08:40:50;;;;;;;23.27;9.32;;;;;;;;;;4916109;29;20040;-68
2022/10/21 09:59:18;;;;;;;12.27;7.85;;;;;;;;;;5121575;23;20021;-61
2022/10/21 10:01:45;;;;;;;14.50;7.65;;;;;;;;;;4933272;29;20526;-63
2022/10/21 10:04:14;;;;;;;11.40;7.60;;;;;;;;;;4933012;29;20028;-63
2022/10/21 10:06:42;;;;;;;13.02;8.32;;;;;;;;;;4915822;29;20404;-63
2022/10/21 10:09:27;;;;;;;14.50;7.32;;;;;;;;;;4933414;29;20035;-63
2022/10/21 10:11:55;;;;;;;11.65;7.50;;;;;;;;;;4933635;29;20030;-63
2022/10/21 10:14:21;;;;;;;13.05;7.43;;;;;;;;;;4933340;29;20091;-63
2022/10/21 10:16:47;;;;;;;15.02;7.65;;;;;;;;;;4933229;29;20437;-62
2022/10/21 10:19:18;;;;;;;13.15;8.07;;;;;;;;;;4933416;29;20082;-64
2022/10/21 10:21:44;;;;;;;19.35;7.55;;;;;;;;;;4933137;29;20035;-64
2022/10/21 10:24:20;;;;;;;11.40;7.25;;;;;;;;;;4936482;29;20032;-64
2022/10/21 10:26:47;;;;;;;10.10;7.30;;;;;;;;;;4936760;29;20031;-61
2022/10/21 10:29:24;;;;;;;14.32;7.85;;;;;;;;;;4931903;29;20131;-62
2022/10/21 14:34:21;;;;;;;15.85;7.90;;;;;;;;;;5160398;23;20067;-60
2022/10/21 14:37:16;;;;;;;16.83;8.38;;;;;;;;;;4915623;29;20123;-66
2022/10/21 14:39:42;;;;;;;19.50;8.70;;;;;;;;;;4896698;29;20052;-66
2022/10/21 14:42:12;;;;;;;13.70;7.30;;;;;;;;;;4916275;29;20578;-60
2022/10/21 14:44:38;;;;;;;16.13;8.13;;;;;;;;;;4915559;29;20026;-66
2022/10/21 14:47:05;;;;;;;14.18;7.65;;;;;;;;;;4916302;29;20042;-61
2022/10/21 14:49:39;;;;;;;12.98;7.90;;;;;;;;;;4916087;29;20056;-62
2022/10/21 14:52:07;;;;;;;17.50;7.95;;;;;;;;;;4915827;29;20040;-60
2022/10/21 14:54:40;;;;;;;20.00;9.98;;;;;;;;;;4916793;29;20555;-60
2022/10/21 14:57:14;;;;;;;15.98;7.85;;;;;;;;;;4917658;29;20043;-64
2022/10/21 14:59:41;;;;;;;14.95;8.00;;;;;;;;;;4917204;29;20036;-59
2022/10/21 15:02:19;;;;;;;16.67;8.00;;;;;;;;;;4916947;29;20091;-60
2022/10/21 15:04:50;;;;;;;15.23;8.10;;;;;;;;;;4917655;29;20028;-60
2022/10/21 15:07:32;;;;;;;18.48;8.38;;;;;;;;;;4900107;29;20361;-60
2022/10/21 15:09:58;;;;;;;21.27;8.70;;;;;;;;;;4917587;29;20036;-61
2022/10/21 15:12:25;;;;;;;16.98;8.05;;;;;;;;;;4917287;29;20036;-60
2022/10/21 15:14:51;;;;;;;15.15;8.77;;;;;;;;;;4917015;29;20047;-59
2022/10/21 16:38:01;;;;;;;25.60;12.02;;;;;;;;;;4832628;27;20052;-67
2022/10/21 16:40:31;;;;;;;22.35;11.52;;;;;;;;;;4897152;29;20341;-64
2022/10/21 16:42:57;;;;;;;21.42;11.35;;;;;;;;;;4885060;29;20033;-61
2022/10/21 16:45:26;;;;;;;22.95;11.38;;;;;;;;;;4884628;29;20401;-71
2022/10/21 16:47:55;;;;;;;20.73;11.43;;;;;;;;;;4887278;29;20032;-61
2022/10/21 16:50:23;;;;;;;21.02;11.15;;;;;;;;;;4887114;29;20123;-68
2022/10/21 16:52:49;;;;;;;19.40;10.27;;;;;;;;;;4886885;29;20097;-67
2022/10/21 16:55:16;;;;;;;24.20;11.25;;;;;;;;;;4884969;29;20112;-62
2022/10/21 16:57:42;;;;;;;20.83;11.07;;;;;;;;;;4886843;29;20025;-61
2022/10/21 17:00:08;;;;;;;21.17;10.15;;;;;;;;;;4885956;29;20036;-61
2022/10/21 17:02:35;;;;;;;20.67;9.85;;;;;;;;;;4885543;29;20405;-59
2022/10/21 17:05:01;;;;;;;23.60;9.93;;;;;;;;;;4886177;29;20393;-74
2022/10/21 17:07:30;;;;;;;19.15;9.30;;;;;;;;;;4885504;29;20533;-67
2022/10/21 17:09:56;;;;;;;20.98;10.02;;;;;;;;;;4883722;29;20430;-58
2022/10/21 17:12:22;;;;;;;19.52;10.65;;;;;;;;;;4882579;29;20032;-75
2022/10/21 17:14:48;;;;;;;24.65;11.18;;;;;;;;;;4881801;29;20024;-60
2022/10/21 17:17:16;;;;;;;23.88;11.00;;;;;;;;;;4882259;29;20033;-62
2022/10/21 17:19:42;;;;;;;20.50;10.50;;;;;;;;;;4885723;29;20045;-63
2022/10/21 17:22:13;;;;;;;21.33;9.90;;;;;;;;;;4884904;29;20132;-60
2022/10/21 17:24:39;;;;;;;21.25;10.77;;;;;;;;;;4885952;29;20100;-72
2022/10/21 17:27:05;;;;;;;22.33;11.18;;;;;;;;;;4886013;29;20032;-63
2022/10/21 17:29:31;;;;;;;20.35;10.73;;;;;;;;;;4884644;29;20100;-63
2022/10/21 17:31:58;;;;;;;19.70;10.38;;;;;;;;;;4886730;29;20122;-68
2022/10/21 17:34:29;;;;;;;19.75;10.57;;;;;;;;;;4888910;29;20034;-71
2022/10/21 17:36:55;;;;;;;24.38;10.90;;;;;;;;;;4896809;29;20052;-61
2022/10/21 17:39:21;;;;;;;22.38;10.75;;;;;;;;;;4901973;29;20040;-72
2022/10/21 17:41:48;;;;;;;26.20;10.45;;;;;;;;;;4903681;29;20040;-68
2022/10/21 17:44:14;;;;;;;25.20;11.90;;;;;;;;;;4903120;29;20044;-71
2022/10/21 17:46:41;;;;;;;23.88;11.82;;;;;;;;;;4896030;29;20032;-71
2022/10/21 17:49:09;;;;;;;25.63;12.00;;;;;;;;;;4895814;29;20063;-69
2022/10/21 17:51:35;;;;;;;27.98;11.73;;;;;;;;;;4895593;29;20401;-68
2022/10/21 17:54:01;;;;;;;22.30;12.02;;;;;;;;;;4895883;29;20153;-68
2022/10/21 17:56:27;;;;;;;21.98;11.88;;;;;;;;;;4896247;29;20035;-66
2022/10/21 17:58:54;;;;;;;25.67;12.40;;;;;;;;;;4896144;29;20035;-70
2022/10/21 18:01:21;;;;;;;22.88;11.50;;;;;;;;;;4900563;29;20408;-70
2022/10/21 18:03:47;;;;;;;21.02;11.25;;;;;;;;;;4905068;29;20051;-65
2022/10/21 18:06:13;;;;;;;22.65;12.18;;;;;;;;;;4903202;29;20033;-70
2022/10/21 18:08:40;;;;;;;25.75;11.52;;;;;;;;;;4903935;29;20016;-58
2022/10/21 18:11:07;;;;;;;24.80;12.93;;;;;;;;;;4905500;29;20056;-68
2022/10/21 18:13:33;;;;;;;27.83;12.57;;;;;;;;;;4899714;29;20028;-67
2022/10/21 18:16:03;;;;;;;25.23;13.40;;;;;;;;;;4904502;29;20075;-67
2022/10/21 18:18:29;;;;;;;27.15;13.73;;;;;;;;;;4908841;29;20032;-67
2022/10/21 18:21:00;;;;;;;24.73;12.75;;;;;;;;;;4906771;29;20032;-65
2022/10/21 18:23:26;;;;;;;28.05;13.65;;;;;;;;;;4906618;29;20036;-64
2022/10/21 18:25:52;;;;;;;27.95;13.32;;;;;;;;;;4908739;29;20432;-64
2022/10/21 18:28:18;;;;;;;29.45;14.02;;;;;;;;;;4907368;29;20362;-64
2022/10/21 18:30:44;;;;;;;33.15;13.27;;;;;;;;;;4907217;29;20059;-66
2022/10/21 18:33:10;;;;;;;22.80;12.77;;;;;;;;;;4908697;29;20365;-66
2022/10/21 18:35:36;;;;;;;26.77;13.50;;;;;;;;;;4912736;29;20071;-59
2022/10/21 18:38:02;;;;;;;24.98;13.90;;;;;;;;;;4917748;29;20059;-66
2022/10/21 18:40:28;;;;;;;24.25;13.45;;;;;;;;;;4918108;29;20044;-64
2022/10/21 18:42:54;;;;;;;26.30;13.98;;;;;;;;;;4918136;29;20150;-63
2022/10/21 18:45:21;;;;;;;26.90;13.02;;;;;;;;;;4918028;29;20133;-59
2022/10/21 18:47:48;;;;;;;24.23;12.70;;;;;;;;;;4909882;29;20032;-65
2022/10/21 18:50:15;;;;;;;25.08;13.02;;;;;;;;;;4880225;29;20060;-63
2022/10/21 18:52:41;;;;;;;31.50;14.00;;;;;;;;;;4880181;29;20032;-64
2022/10/21 18:55:07;;;;;;;25.67;13.10;;;;;;;;;;4880027;29;20036;-62
2022/10/21 18:57:33;;;;;;;32.17;14.48;;;;;;;;;;4880342;29;20071;-66
2022/10/21 18:59:59;;;;;;;27.63;14.98;;;;;;;;;;4880207;29;20074;-65
2022/10/21 19:02:25;;;;;;;27.90;14.95;;;;;;;;;;4880314;29;20033;-65
2022/10/21 19:04:51;;;;;;;30.08;15.23;;;;;;;;;;4880696;29;20021;-67
2022/10/21 19:07:17;;;;;;;25.05;13.40;;;;;;;;;;4879831;29;20045;-60
2022/10/21 19:09:43;;;;;;;29.77;13.43;;;;;;;;;;4899884;29;20036;-61
2022/10/21 19:12:10;;;;;;;29.85;11.98;;;;;;;;;;4917179;29;20095;-59
2022/10/21 19:14:36;;;;;;;24.20;12.13;;;;;;;;;;4917324;29;20520;-62
2022/10/21 19:17:03;;;;;;;22.00;11.43;;;;;;;;;;4897919;29;20481;-64
2022/10/21 19:19:29;;;;;;;26.35;11.48;;;;;;;;;;4897806;29;20040;-64
2022/10/21 19:21:55;;;;;;;25.15;10.63;;;;;;;;;;4898260;29;20041;-61
2022/10/21 19:24:21;;;;;;;21.65;10.75;;;;;;;;;;4898580;29;20047;-62
2022/10/21 19:26:51;;;;;;;21.23;10.93;;;;;;;;;;4898456;29;20037;-60
2022/10/21 19:29:18;;;;;;;26.77;11.65;;;;;;;;;;4898318;29;20032;-61
2022/10/21 19:31:45;;;;;;;21.30;11.07;;;;;;;;;;4898059;29;20497;-65
2022/10/21 19:34:12;;;;;;;25.75;10.70;;;;;;;;;;4898521;29;20032;-60
2022/10/21 19:36:38;;;;;;;21.15;10.65;;;;;;;;;;4905057;29;20116;-59
2022/10/21 19:39:04;;;;;;;34.63;15.77;;;;;;;;;;4911200;29;20040;-61
2022/10/21 19:41:30;;;;;;;27.88;14.57;;;;;;;;;;4906416;29;20040;-60
2022/10/21 19:43:57;;;;;;;27.90;13.52;;;;;;;;;;4897893;29;20472;-63
2022/10/21 19:46:23;;;;;;;24.58;12.90;;;;;;;;;;4897842;29;20029;-63
2022/10/21 19:48:49;;;;;;;24.92;12.25;;;;;;;;;;4910113;29;20032;-58
2022/10/21 19:51:17;;;;;;;30.88;11.27;;;;;;;;;;4911249;29;20548;-59
2022/10/21 19:53:44;;;;;;;19.67;10.77;;;;;;;;;;4904067;29;20028;-65
2022/10/21 19:56:10;;;;;;;24.17;10.93;;;;;;;;;;4907966;29;20764;-58
2022/10/21 19:58:40;;;;;;;24.02;11.07;;;;;;;;;;4905271;29;20039;-63
2022/10/21 20:01:11;;;;;;;26.55;12.15;;;;;;;;;;4900001;29;20040;-63
2022/10/21 20:03:37;;;;;;;26.92;12.73;;;;;;;;;;4908810;29;20067;-58
2022/10/21 20:06:05;;;;;;;25.77;12.77;;;;;;;;;;4904926;29;20071;-62
2022/10/21 20:08:33;;;;;;;19.17;10.65;;;;;;;;;;4909680;29;20036;-64
2022/10/21 20:11:03;;;;;;;19.65;10.48;;;;;;;;;;4910834;29;20149;-65
2022/10/21 20:13:30;;;;;;;21.65;10.23;;;;;;;;;;4905337;29;20039;-60
2022/10/21 20:15:56;;;;;;;20.80;9.80;;;;;;;;;;4902128;29;20420;-66
2022/10/21 20:18:22;;;;;;;22.00;10.48;;;;;;;;;;4901358;29;20116;-63
2022/10/21 20:20:48;;;;;;;15.15;9.10;;;;;;;;;;4905418;29;20040;-62
2022/10/21 20:23:14;;;;;;;17.35;8.85;;;;;;;;;;4904756;29;20035;-67
2022/10/21 20:25:47;;;;;;;16.80;8.70;;;;;;;;;;4908342;29;20179;-66
2022/10/21 20:28:14;;;;;;;18.58;8.55;;;;;;;;;;4910790;29;20754;-62
2022/10/21 20:30:40;;;;;;;17.73;8.57;;;;;;;;;;4915602;29;20032;-63
2022/10/21 20:33:06;;;;;;;17.88;8.38;;;;;;;;;;4903141;29;20524;-60
2022/10/21 20:35:33;;;;;;;18.70;9.07;;;;;;;;;;4893217;29;20372;-63
2022/10/21 20:37:59;;;;;;;20.13;8.93;;;;;;;;;;4895949;29;20052;-67
2022/10/21 20:40:26;;;;;;;17.58;8.90;;;;;;;;;;4896700;29;20044;-64
2022/10/21 20:42:52;;;;;;;14.93;8.60;;;;;;;;;;4897371;29;20356;-64
2022/10/21 20:45:19;;;;;;;15.35;7.90;;;;;;;;;;4894895;29;20036;-59
2022/10/21 20:47:45;;;;;;;13.80;7.90;;;;;;;;;;4897321;29;20492;-65
2022/10/21 20:50:11;;;;;;;18.83;8.40;;;;;;;;;;4897101;29;20064;-60
2022/10/21 20:52:37;;;;;;;18.10;9.27;;;;;;;;;;4896869;29;20225;-66
2022/10/21 20:55:03;;;;;;;18.92;8.15;;;;;;;;;;4896742;29;20062;-66
2022/10/21 20:57:30;;;;;;;16.55;8.40;;;;;;;;;;4904804;29;20036;-66
2022/10/21 20:59:56;;;;;;;18.35;8.40;;;;;;;;;;4915606;29;20035;-60
2022/10/21 21:02:22;;;;;;;17.67;9.05;;;;;;;;;;4915664;29;20087;-62
2022/10/21 21:04:48;;;;;;;17.33;8.60;;;;;;;;;;4901156;29;20029;-66
2022/10/21 21:07:14;;;;;;;20.10;8.70;;;;;;;;;;4896506;29;20044;-63
2022/10/21 21:09:40;;;;;;;16.42;8.50;;;;;;;;;;4896425;29;20034;-66
2022/10/21 21:12:06;;;;;;;19.10;9.13;;;;;;;;;;4896533;29;20067;-59
2022/10/21 21:14:32;;;;;;;16.15;8.80;;;;;;;;;;4896615;29;20084;-66
2022/10/21 21:16:58;;;;;;;17.17;9.05;;;;;;;;;;4896634;29;20039;-60
2022/10/21 21:19:25;;;;;;;18.27;8.18;;;;;;;;;;4896466;29;20029;-59
2022/10/21 21:21:51;;;;;;;19.52;8.50;;;;;;;;;;4896440;29;20051;-66
2022/10/21 21:24:18;;;;;;;16.80;8.80;;;;;;;;;;4884518;29;20059;-63
2022/10/21 21:26:44;;;;;;;21.27;8.88;;;;;;;;;;4896581;29;20441;-66
2022/10/21 21:29:11;;;;;;;21.58;8.88;;;;;;;;;;4896273;29;20053;-66
2022/10/21 21:31:37;;;;;;;15.80;8.15;;;;;;;;;;4896426;29;20088;-63
2022/10/21 21:34:03;;;;;;;19.70;9.05;;;;;;;;;;4896090;29;20036;-59
2022/10/21 21:36:30;;;;;;;17.38;8.70;;;;;;;;;;4895574;29;20596;-58
2022/10/21 21:38:56;;;;;;;15.85;7.97;;;;;;;;;;4895868;29;20044;-59
2022/10/21 21:41:23;;;;;;;15.52;8.02;;;;;;;;;;4895985;29;20040;-66
2022/10/21 21:43:49;;;;;;;16.20;8.18;;;;;;;;;;4896196;29;20040;-65
2022/10/21 21:46:21;;;;;;;15.63;8.80;;;;;;;;;;4896019;29;20060;-59
2022/10/21 21:48:48;;;;;;;14.40;7.75;;;;;;;;;;4896000;29;20024;-59
2022/10/21 21:51:14;;;;;;;13.93;7.95;;;;;;;;;;4895810;29;20401;-61
2022/10/21 21:53:40;;;;;;;16.48;8.50;;;;;;;;;;4895580;29;20381;-58
2022/10/21 21:56:08;;;;;;;18.20;7.82;;;;;;;;;;4895879;29;20035;-66
2022/10/21 21:58:34;;;;;;;19.20;8.45;;;;;;;;;;4895779;29;20485;-59
2022/10/21 22:01:19;;;;;;;16.00;8.32;;;;;;;;;;4895640;29;20120;-65
2022/10/21 22:03:50;;;;;;;19.95;8.90;;;;;;;;;;4904523;29;20035;-62
2022/10/21 22:06:16;;;;;;;15.73;8.35;;;;;;;;;;4900725;29;20485;-60
2022/10/21 22:08:42;;;;;;;16.10;9.27;;;;;;;;;;4905518;29;20498;-59
2022/10/21 22:11:10;;;;;;;17.73;8.25;;;;;;;;;;4910665;29;20031;-62
2022/10/21 22:13:37;;;;;;;17.48;8.68;;;;;;;;;;4904722;29;20025;-59
2022/10/21 22:16:03;;;;;;;15.65;8.52;;;;;;;;;;4911362;29;20028;-63
2022/10/21 22:18:29;;;;;;;16.55;8.48;;;;;;;;;;4914710;29;20047;-68
2022/10/21 22:20:59;;;;;;;17.92;8.18;;;;;;;;;;4914659;29;20548;-66
2022/10/21 22:23:25;;;;;;;17.30;7.65;;;;;;;;;;4914402;29;20488;-60
2022/10/21 22:25:51;;;;;;;12.35;7.30;;;;;;;;;;4914403;29;20111;-60
2022/10/21 22:28:17;;;;;;;14.55;7.82;;;;;;;;;;4914691;29;20033;-63
